sensor_id;sensor_type;location;lat;lon;timestamp;P1;durP1;ratioP1;P2;durP2;ratioP2
23800;SDS011;12081;48.614;10.226;2023-12-20T00:02:18;5.37;;;4.13;;
23800;SDS011;12081;48.614;10.226;2023-12-20T00:05:02;6.60;;;4.70;;
23800;SDS011;12081;48.614;10.226;2023-12-20T00:07:47;5.60;;;4.70;;
23800;SDS011;12081;48.614;10.226;2023-12-20T00:10:31;6.47;;;4.47;;
23800;SDS011;12081;48.614;10.226;2023-12-20T00:13:15;6.13;;;4.50;;
23800;SDS011;12081;48.614;10.226;2023-12-20T00:15:59;5.77;;;4.37;;
23800;SDS011;12081;48.614;10.226;2023-12-20T00:18:43;6.07;;;4.50;;
23800;SDS011;12081;48.614;10.226;2023-12-20T00:21:27;6.37;;;4.83;;
23800;SDS011;12081;48.614;10.226;2023-12-20T00:24:11;7.17;;;4.57;;
23800;SDS011;12081;48.614;10.226;2023-12-20T00:26:55;5.70;;;4.67;;
23800;SDS011;12081;48.614;10.226;2023-12-20T00:29:39;7.17;;;4.97;;
23800;SDS011;12081;48.614;10.226;2023-12-20T00:32:23;5.70;;;4.53;;
23800;SDS011;12081;48.614;10.226;2023-12-20T00:35:07;7.40;;;4.70;;
23800;SDS011;12081;48.614;10.226;2023-12-20T00:37:51;6.47;;;4.83;;
23800;SDS011;12081;48.614;10.226;2023-12-20T00:40:35;5.03;;;3.80;;
23800;SDS011;12081;48.614;10.226;2023-12-20T00:43:19;8.97;;;3.70;;
23800;SDS011;12081;48.614;10.226;2023-12-20T00:46:03;6.73;;;4.33;;
23800;SDS011;12081;48.614;10.226;2023-12-20T00:48:47;6.10;;;3.90;;
23800;SDS011;12081;48.614;10.226;2023-12-20T00:51:31;5.93;;;3.67;;
23800;SDS011;12081;48.614;10.226;2023-12-20T00:54:16;6.43;;;3.57;;
23800;SDS011;12081;48.614;10.226;2023-12-20T00:57:00;4.53;;;3.47;;
23800;SDS011;12081;48.614;10.226;2023-12-20T00:59:44;6.63;;;3.87;;
23800;SDS011;12081;48.614;10.226;2023-12-20T01:02:28;7.07;;;4.07;;
23800;SDS011;12081;48.614;10.226;2023-12-20T01:05:12;4.60;;;3.20;;
23800;SDS011;12081;48.614;10.226;2023-12-20T01:07:56;4.87;;;3.27;;
23800;SDS011;12081;48.614;10.226;2023-12-20T01:10:40;6.97;;;3.83;;
23800;SDS011;12081;48.614;10.226;2023-12-20T01:13:24;5.33;;;3.87;;
23800;SDS011;12081;48.614;10.226;2023-12-20T01:16:10;3.97;;;3.03;;
23800;SDS011;12081;48.614;10.226;2023-12-20T01:18:55;5.43;;;3.30;;
23800;SDS011;12081;48.614;10.226;2023-12-20T01:21:39;4.23;;;3.20;;
23800;SDS011;12081;48.614;10.226;2023-12-20T01:24:23;4.33;;;3.30;;
23800;SDS011;12081;48.614;10.226;2023-12-20T01:27:07;5.30;;;3.50;;
23800;SDS011;12081;48.614;10.226;2023-12-20T01:29:52;5.57;;;3.80;;
23800;SDS011;12081;48.614;10.226;2023-12-20T01:32:35;6.27;;;3.80;;
23800;SDS011;12081;48.614;10.226;2023-12-20T01:35:19;5.80;;;3.13;;
23800;SDS011;12081;48.614;10.226;2023-12-20T01:38:03;4.63;;;3.50;;
23800;SDS011;12081;48.614;10.226;2023-12-20T01:40:48;4.73;;;3.20;;
23800;SDS011;12081;48.614;10.226;2023-12-20T01:43:32;4.30;;;3.13;;
23800;SDS011;12081;48.614;10.226;2023-12-20T01:46:16;4.40;;;2.87;;
23800;SDS011;12081;48.614;10.226;2023-12-20T01:49:00;4.23;;;3.30;;
23800;SDS011;12081;48.614;10.226;2023-12-20T01:51:44;13.63;;;3.20;;
23800;SDS011;12081;48.614;10.226;2023-12-20T01:54:29;2.90;;;2.20;;
23800;SDS011;12081;48.614;10.226;2023-12-20T01:57:15;4.93;;;2.43;;
23800;SDS011;12081;48.614;10.226;2023-12-20T01:59:59;3.93;;;2.77;;
23800;SDS011;12081;48.614;10.226;2023-12-20T02:02:43;4.30;;;2.90;;
23800;SDS011;12081;48.614;10.226;2023-12-20T02:05:34;4.77;;;3.00;;
23800;SDS011;12081;48.614;10.226;2023-12-20T02:08:19;3.20;;;2.70;;
23800;SDS011;12081;48.614;10.226;2023-12-20T02:11:03;3.30;;;2.47;;
23800;SDS011;12081;48.614;10.226;2023-12-20T02:13:47;4.70;;;2.70;;
23800;SDS011;12081;48.614;10.226;2023-12-20T02:16:32;3.73;;;2.90;;
23800;SDS011;12081;48.614;10.226;2023-12-20T02:19:16;3.23;;;2.50;;
23800;SDS011;12081;48.614;10.226;2023-12-20T02:22:21;7.50;;;2.80;;
23800;SDS011;12081;48.614;10.226;2023-12-20T02:25:05;4.07;;;2.40;;
23800;SDS011;12081;48.614;10.226;2023-12-20T02:27:49;3.70;;;2.40;;
23800;SDS011;12081;48.614;10.226;2023-12-20T02:30:34;4.90;;;3.03;;
23800;SDS011;12081;48.614;10.226;2023-12-20T02:33:18;3.70;;;2.60;;
23800;SDS011;12081;48.614;10.226;2023-12-20T02:36:02;4.93;;;2.40;;
23800;SDS011;12081;48.614;10.226;2023-12-20T02:38:47;5.83;;;2.97;;
23800;SDS011;12081;48.614;10.226;2023-12-20T02:41:31;4.63;;;2.90;;
23800;SDS011;12081;48.614;10.226;2023-12-20T02:44:15;3.60;;;2.80;;
23800;SDS011;12081;48.614;10.226;2023-12-20T02:46:59;4.30;;;2.77;;
23800;SDS011;12081;48.614;10.226;2023-12-20T02:49:43;5.07;;;3.10;;
23800;SDS011;12081;48.614;10.226;2023-12-20T02:52:28;4.67;;;2.90;;
23800;SDS011;12081;48.614;10.226;2023-12-20T02:55:12;3.60;;;2.80;;
23800;SDS011;12081;48.614;10.226;2023-12-20T02:57:56;3.40;;;2.40;;
23800;SDS011;12081;48.614;10.226;2023-12-20T03:00:40;7.63;;;2.53;;
23800;SDS011;12081;48.614;10.226;2023-12-20T03:03:24;4.80;;;2.70;;
23800;SDS011;12081;48.614;10.226;2023-12-20T03:06:08;3.13;;;2.47;;
23800;SDS011;12081;48.614;10.226;2023-12-20T03:08:52;4.47;;;2.77;;
23800;SDS011;12081;48.614;10.226;2023-12-20T03:11:36;4.03;;;3.63;;
23800;SDS011;12081;48.614;10.226;2023-12-20T03:14:20;3.70;;;3.07;;
23800;SDS011;12081;48.614;10.226;2023-12-20T03:17:04;6.07;;;2.80;;
23800;SDS011;12081;48.614;10.226;2023-12-20T03:19:48;4.20;;;2.50;;
23800;SDS011;12081;48.614;10.226;2023-12-20T03:22:33;3.13;;;2.83;;
23800;SDS011;12081;48.614;10.226;2023-12-20T03:25:17;3.13;;;2.40;;
23800;SDS011;12081;48.614;10.226;2023-12-20T03:28:01;3.83;;;2.53;;
23800;SDS011;12081;48.614;10.226;2023-12-20T03:30:45;3.17;;;2.30;;
23800;SDS011;12081;48.614;10.226;2023-12-20T03:33:29;4.80;;;2.63;;
23800;SDS011;12081;48.614;10.226;2023-12-20T03:36:13;3.27;;;2.53;;
23800;SDS011;12081;48.614;10.226;2023-12-20T03:38:57;3.53;;;2.47;;
23800;SDS011;12081;48.614;10.226;2023-12-20T03:41:42;2.97;;;2.10;;
23800;SDS011;12081;48.614;10.226;2023-12-20T03:44:26;2.53;;;1.90;;
23800;SDS011;12081;48.614;10.226;2023-12-20T03:47:10;2.70;;;1.97;;
23800;SDS011;12081;48.614;10.226;2023-12-20T03:49:54;2.87;;;2.20;;
23800;SDS011;12081;48.614;10.226;2023-12-20T03:52:38;2.00;;;1.57;;
23800;SDS011;12081;48.614;10.226;2023-12-20T03:55:22;4.27;;;2.10;;
23800;SDS011;12081;48.614;10.226;2023-12-20T03:58:06;3.57;;;2.23;;
23800;SDS011;12081;48.614;10.226;2023-12-20T04:00:50;3.97;;;2.60;;
23800;SDS011;12081;48.614;10.226;2023-12-20T04:03:34;4.00;;;2.77;;
23800;SDS011;12081;48.614;10.226;2023-12-20T04:06:18;4.03;;;2.73;;
23800;SDS011;12081;48.614;10.226;2023-12-20T04:09:03;3.50;;;2.87;;
23800;SDS011;12081;48.614;10.226;2023-12-20T04:11:47;5.53;;;2.60;;
23800;SDS011;12081;48.614;10.226;2023-12-20T04:14:32;6.93;;;2.70;;
23800;SDS011;12081;48.614;10.226;2023-12-20T04:17:16;3.90;;;2.50;;
23800;SDS011;12081;48.614;10.226;2023-12-20T04:20:00;6.17;;;2.47;;
23800;SDS011;12081;48.614;10.226;2023-12-20T04:22:44;8.37;;;2.93;;
23800;SDS011;12081;48.614;10.226;2023-12-20T04:25:28;3.77;;;2.93;;
23800;SDS011;12081;48.614;10.226;2023-12-20T04:28:12;3.60;;;2.67;;
23800;SDS011;12081;48.614;10.226;2023-12-20T04:30:56;3.77;;;2.80;;
23800;SDS011;12081;48.614;10.226;2023-12-20T04:33:40;4.97;;;3.10;;
23800;SDS011;12081;48.614;10.226;2023-12-20T04:36:24;8.00;;;3.27;;
23800;SDS011;12081;48.614;10.226;2023-12-20T04:39:11;3.37;;;2.27;;
23800;SDS011;12081;48.614;10.226;2023-12-20T04:41:56;2.50;;;2.13;;
23800;SDS011;12081;48.614;10.226;2023-12-20T04:44:40;9.30;;;2.00;;
23800;SDS011;12081;48.614;10.226;2023-12-20T04:47:24;2.73;;;1.20;;
23800;SDS011;12081;48.614;10.226;2023-12-20T04:50:08;1.93;;;1.37;;
23800;SDS011;12081;48.614;10.226;2023-12-20T04:52:53;3.17;;;1.10;;
23800;SDS011;12081;48.614;10.226;2023-12-20T04:55:37;3.33;;;0.90;;
23800;SDS011;12081;48.614;10.226;2023-12-20T04:58:22;2.20;;;0.70;;
23800;SDS011;12081;48.614;10.226;2023-12-20T05:01:08;3.37;;;0.53;;
23800;SDS011;12081;48.614;10.226;2023-12-20T05:03:52;0.80;;;0.60;;
23800;SDS011;12081;48.614;10.226;2023-12-20T05:06:37;0.30;;;0.23;;
23800;SDS011;12081;48.614;10.226;2023-12-20T05:09:21;1.23;;;0.40;;
23800;SDS011;12081;48.614;10.226;2023-12-20T05:12:06;0.30;;;0.20;;
23800;SDS011;12081;48.614;10.226;2023-12-20T05:14:51;1.23;;;0.30;;
23800;SDS011;12081;48.614;10.226;2023-12-20T05:17:36;0.50;;;0.30;;
23800;SDS011;12081;48.614;10.226;2023-12-20T05:20:20;0.30;;;0.23;;
23800;SDS011;12081;48.614;10.226;2023-12-20T05:23:04;0.50;;;0.20;;
23800;SDS011;12081;48.614;10.226;2023-12-20T05:25:49;0.30;;;0.30;;
23800;SDS011;12081;48.614;10.226;2023-12-20T05:28:33;0.30;;;0.20;;
23800;SDS011;12081;48.614;10.226;2023-12-20T05:31:17;0.50;;;0.23;;
23800;SDS011;12081;48.614;10.226;2023-12-20T05:34:01;0.30;;;0.20;;
23800;SDS011;12081;48.614;10.226;2023-12-20T05:36:45;0.40;;;0.17;;
23800;SDS011;12081;48.614;10.226;2023-12-20T05:39:29;0.40;;;0.27;;
23800;SDS011;12081;48.614;10.226;2023-12-20T05:42:14;0.50;;;0.40;;
23800;SDS011;12081;48.614;10.226;2023-12-20T05:44:58;0.63;;;0.30;;
23800;SDS011;12081;48.614;10.226;2023-12-20T05:47:42;0.40;;;0.30;;
23800;SDS011;12081;48.614;10.226;2023-12-20T05:50:26;1.07;;;0.60;;
23800;SDS011;12081;48.614;10.226;2023-12-20T05:53:10;0.47;;;0.30;;
23800;SDS011;12081;48.614;10.226;2023-12-20T05:55:54;0.60;;;0.50;;
23800;SDS011;12081;48.614;10.226;2023-12-20T05:58:38;0.30;;;0.23;;
23800;SDS011;12081;48.614;10.226;2023-12-20T06:01:23;0.43;;;0.40;;
23800;SDS011;12081;48.614;10.226;2023-12-20T06:04:07;0.43;;;0.30;;
23800;SDS011;12081;48.614;10.226;2023-12-20T06:06:51;0.30;;;0.27;;
23800;SDS011;12081;48.614;10.226;2023-12-20T06:09:36;1.27;;;0.33;;
23800;SDS011;12081;48.614;10.226;2023-12-20T06:12:20;2.70;;;1.90;;
23800;SDS011;12081;48.614;10.226;2023-12-20T06:15:04;0.40;;;0.40;;
23800;SDS011;12081;48.614;10.226;2023-12-20T06:17:49;0.30;;;0.30;;
23800;SDS011;12081;48.614;10.226;2023-12-20T06:20:33;0.40;;;0.37;;
23800;SDS011;12081;48.614;10.226;2023-12-20T06:23:17;0.50;;;0.40;;
23800;SDS011;12081;48.614;10.226;2023-12-20T06:26:01;0.67;;;0.40;;
23800;SDS011;12081;48.614;10.226;2023-12-20T06:28:45;30.10;;;12.73;;
23800;SDS011;12081;48.614;10.226;2023-12-20T06:31:37;75.77;;;36.40;;
23800;SDS011;12081;48.614;10.226;2023-12-20T06:34:21;20.13;;;14.47;;
23800;SDS011;12081;48.614;10.226;2023-12-20T06:37:05;20.13;;;17.67;;
23800;SDS011;12081;48.614;10.226;2023-12-20T06:39:49;10.33;;;8.60;;
23800;SDS011;12081;48.614;10.226;2023-12-20T06:42:33;15.07;;;10.93;;
23800;SDS011;12081;48.614;10.226;2023-12-20T06:45:17;13.20;;;11.90;;
23800;SDS011;12081;48.614;10.226;2023-12-20T06:48:01;6.73;;;6.20;;
23800;SDS011;12081;48.614;10.226;2023-12-20T06:50:45;10.37;;;9.57;;
23800;SDS011;12081;48.614;10.226;2023-12-20T06:53:31;1.83;;;1.73;;
23800;SDS011;12081;48.614;10.226;2023-12-20T06:56:15;1.57;;;1.47;;
23800;SDS011;12081;48.614;10.226;2023-12-20T06:59:00;2.50;;;2.17;;
23800;SDS011;12081;48.614;10.226;2023-12-20T07:01:47;0.90;;;0.90;;
23800;SDS011;12081;48.614;10.226;2023-12-20T07:04:32;4.10;;;3.80;;
23800;SDS011;12081;48.614;10.226;2023-12-20T07:07:16;2.57;;;2.40;;
23800;SDS011;12081;48.614;10.226;2023-12-20T07:10:01;9.37;;;8.67;;
23800;SDS011;12081;48.614;10.226;2023-12-20T07:12:45;8.13;;;7.57;;
23800;SDS011;12081;48.614;10.226;2023-12-20T07:15:29;9.33;;;8.63;;
23800;SDS011;12081;48.614;10.226;2023-12-20T07:18:13;3.20;;;3.00;;
23800;SDS011;12081;48.614;10.226;2023-12-20T07:20:57;1.63;;;1.53;;
23800;SDS011;12081;48.614;10.226;2023-12-20T07:23:41;1.07;;;1.03;;
23800;SDS011;12081;48.614;10.226;2023-12-20T07:26:26;2.27;;;1.77;;
23800;SDS011;12081;48.614;10.226;2023-12-20T07:29:10;1.20;;;1.10;;
23800;SDS011;12081;48.614;10.226;2023-12-20T07:31:54;0.97;;;0.80;;
23800;SDS011;12081;48.614;10.226;2023-12-20T07:34:38;1.00;;;0.70;;
23800;SDS011;12081;48.614;10.226;2023-12-20T07:37:21;1.13;;;0.50;;
23800;SDS011;12081;48.614;10.226;2023-12-20T07:40:06;2.47;;;0.93;;
23800;SDS011;12081;48.614;10.226;2023-12-20T07:42:53;0.83;;;0.37;;
23800;SDS011;12081;48.614;10.226;2023-12-20T07:45:37;1.37;;;0.70;;
23800;SDS011;12081;48.614;10.226;2023-12-20T07:48:22;1.83;;;0.90;;
23800;SDS011;12081;48.614;10.226;2023-12-20T07:51:06;0.73;;;0.73;;
23800;SDS011;12081;48.614;10.226;2023-12-20T07:53:52;1.43;;;1.27;;
23800;SDS011;12081;48.614;10.226;2023-12-20T07:56:36;5.50;;;4.07;;
23800;SDS011;12081;48.614;10.226;2023-12-20T07:59:20;1.37;;;0.97;;
23800;SDS011;12081;48.614;10.226;2023-12-20T08:02:04;2.93;;;1.17;;
23800;SDS011;12081;48.614;10.226;2023-12-20T08:04:48;1.93;;;1.73;;
23800;SDS011;12081;48.614;10.226;2023-12-20T08:07:34;0.40;;;0.37;;
23800;SDS011;12081;48.614;10.226;2023-12-20T08:10:19;0.63;;;0.50;;
23800;SDS011;12081;48.614;10.226;2023-12-20T08:13:04;1.73;;;0.57;;
23800;SDS011;12081;48.614;10.226;2023-12-20T08:15:48;0.73;;;0.43;;
23800;SDS011;12081;48.614;10.226;2023-12-20T08:18:32;0.43;;;0.40;;
23800;SDS011;12081;48.614;10.226;2023-12-20T08:21:18;0.40;;;0.30;;
23800;SDS011;12081;48.614;10.226;2023-12-20T08:24:03;2.43;;;0.30;;
23800;SDS011;12081;48.614;10.226;2023-12-20T08:26:48;0.60;;;0.40;;
23800;SDS011;12081;48.614;10.226;2023-12-20T08:29:32;1.80;;;0.50;;
23800;SDS011;12081;48.614;10.226;2023-12-20T08:32:16;0.30;;;0.30;;
23800;SDS011;12081;48.614;10.226;2023-12-20T08:35:00;0.67;;;0.53;;
23800;SDS011;12081;48.614;10.226;2023-12-20T08:37:47;1.07;;;0.50;;
23800;SDS011;12081;48.614;10.226;2023-12-20T08:40:32;4.20;;;2.90;;
23800;SDS011;12081;48.614;10.226;2023-12-20T08:43:16;1.40;;;1.30;;
23800;SDS011;12081;48.614;10.226;2023-12-20T08:46:00;0.60;;;0.60;;
23800;SDS011;12081;48.614;10.226;2023-12-20T08:48:44;0.47;;;0.40;;
23800;SDS011;12081;48.614;10.226;2023-12-20T08:51:29;0.90;;;0.47;;
23800;SDS011;12081;48.614;10.226;2023-12-20T08:54:13;0.50;;;0.40;;
23800;SDS011;12081;48.614;10.226;2023-12-20T08:56:58;0.70;;;0.60;;
23800;SDS011;12081;48.614;10.226;2023-12-20T08:59:49;0.70;;;0.50;;
23800;SDS011;12081;48.614;10.226;2023-12-20T09:02:33;1.00;;;0.50;;
23800;SDS011;12081;48.614;10.226;2023-12-20T09:05:20;0.70;;;0.50;;
23800;SDS011;12081;48.614;10.226;2023-12-20T09:08:04;1.73;;;1.53;;
23800;SDS011;12081;48.614;10.226;2023-12-20T09:10:48;0.60;;;0.50;;
23800;SDS011;12081;48.614;10.226;2023-12-20T09:13:32;0.60;;;0.60;;
23800;SDS011;12081;48.614;10.226;2023-12-20T09:16:16;0.57;;;0.50;;
23800;SDS011;12081;48.614;10.226;2023-12-20T09:19:00;0.67;;;0.60;;
23800;SDS011;12081;48.614;10.226;2023-12-20T09:21:45;0.73;;;0.60;;
23800;SDS011;12081;48.614;10.226;2023-12-20T09:24:29;0.90;;;0.70;;
23800;SDS011;12081;48.614;10.226;2023-12-20T09:27:14;0.73;;;0.70;;
23800;SDS011;12081;48.614;10.226;2023-12-20T09:30:05;0.77;;;0.50;;
23800;SDS011;12081;48.614;10.226;2023-12-20T09:32:50;1.23;;;1.13;;
23800;SDS011;12081;48.614;10.226;2023-12-20T09:35:34;1.13;;;0.80;;
23800;SDS011;12081;48.614;10.226;2023-12-20T09:38:18;1.23;;;1.13;;
23800;SDS011;12081;48.614;10.226;2023-12-20T09:41:02;1.70;;;1.03;;
23800;SDS011;12081;48.614;10.226;2023-12-20T09:43:48;2.27;;;1.20;;
23800;SDS011;12081;48.614;10.226;2023-12-20T09:46:34;2.17;;;1.20;;
23800;SDS011;12081;48.614;10.226;2023-12-20T09:49:22;2.70;;;1.30;;
23800;SDS011;12081;48.614;10.226;2023-12-20T09:52:07;3.33;;;1.30;;
23800;SDS011;12081;48.614;10.226;2023-12-20T09:54:52;2.37;;;1.13;;
23800;SDS011;12081;48.614;10.226;2023-12-20T09:57:39;3.07;;;1.37;;
23800;SDS011;12081;48.614;10.226;2023-12-20T10:00:23;1.40;;;1.20;;
23800;SDS011;12081;48.614;10.226;2023-12-20T10:03:07;1.37;;;1.10;;
23800;SDS011;12081;48.614;10.226;2023-12-20T10:05:52;1.40;;;1.30;;
23800;SDS011;12081;48.614;10.226;2023-12-20T10:08:39;2.00;;;1.10;;
23800;SDS011;12081;48.614;10.226;2023-12-20T10:11:23;2.67;;;1.17;;
23800;SDS011;12081;48.614;10.226;2023-12-20T10:14:10;1.40;;;1.20;;
23800;SDS011;12081;48.614;10.226;2023-12-20T10:17:01;1.87;;;1.40;;
23800;SDS011;12081;48.614;10.226;2023-12-20T10:19:46;1.90;;;0.97;;
23800;SDS011;12081;48.614;10.226;2023-12-20T10:22:30;2.23;;;1.20;;
23800;SDS011;12081;48.614;10.226;2023-12-20T10:25:16;1.50;;;1.00;;
23800;SDS011;12081;48.614;10.226;2023-12-20T10:28:14;3.00;;;1.13;;
23800;SDS011;12081;48.614;10.226;2023-12-20T10:31:03;3.63;;;1.30;;
23800;SDS011;12081;48.614;10.226;2023-12-20T10:33:47;2.60;;;1.37;;
23800;SDS011;12081;48.614;10.226;2023-12-20T10:36:32;4.30;;;1.60;;
23800;SDS011;12081;48.614;10.226;2023-12-20T10:39:18;3.10;;;1.30;;
23800;SDS011;12081;48.614;10.226;2023-12-20T10:42:04;2.40;;;1.20;;
23800;SDS011;12081;48.614;10.226;2023-12-20T10:44:49;2.67;;;1.60;;
23800;SDS011;12081;48.614;10.226;2023-12-20T10:47:34;1.83;;;1.03;;
23800;SDS011;12081;48.614;10.226;2023-12-20T10:50:20;1.67;;;0.90;;
23800;SDS011;12081;48.614;10.226;2023-12-20T10:53:04;2.63;;;0.90;;
23800;SDS011;12081;48.614;10.226;2023-12-20T10:55:49;4.37;;;1.10;;
23800;SDS011;12081;48.614;10.226;2023-12-20T10:58:38;2.43;;;1.27;;
23800;SDS011;12081;48.614;10.226;2023-12-20T11:01:29;2.07;;;1.00;;
23800;SDS011;12081;48.614;10.226;2023-12-20T11:04:15;4.73;;;1.30;;
23800;SDS011;12081;48.614;10.226;2023-12-20T11:07:16;2.50;;;0.90;;
23800;SDS011;12081;48.614;10.226;2023-12-20T11:10:20;3.50;;;1.50;;
23800;SDS011;12081;48.614;10.226;2023-12-20T11:13:16;2.03;;;1.10;;
23800;SDS011;12081;48.614;10.226;2023-12-20T11:16:08;2.77;;;1.60;;
23800;SDS011;12081;48.614;10.226;2023-12-20T11:18:52;1.57;;;1.17;;
23800;SDS011;12081;48.614;10.226;2023-12-20T11:21:37;4.43;;;1.30;;
23800;SDS011;12081;48.614;10.226;2023-12-20T11:24:21;3.27;;;1.40;;
23800;SDS011;12081;48.614;10.226;2023-12-20T11:27:07;2.23;;;1.13;;
23800;SDS011;12081;48.614;10.226;2023-12-20T11:29:52;5.13;;;1.20;;
23800;SDS011;12081;48.614;10.226;2023-12-20T11:32:37;4.87;;;1.40;;
23800;SDS011;12081;48.614;10.226;2023-12-20T11:35:24;4.00;;;1.20;;
23800;SDS011;12081;48.614;10.226;2023-12-20T11:38:09;5.07;;;1.00;;
23800;SDS011;12081;48.614;10.226;2023-12-20T11:40:54;4.17;;;1.00;;
23800;SDS011;12081;48.614;10.226;2023-12-20T11:43:39;3.57;;;1.50;;
23800;SDS011;12081;48.614;10.226;2023-12-20T11:46:23;5.33;;;1.20;;
23800;SDS011;12081;48.614;10.226;2023-12-20T11:49:09;5.07;;;1.50;;
23800;SDS011;12081;48.614;10.226;2023-12-20T11:51:53;2.73;;;1.40;;
23800;SDS011;12081;48.614;10.226;2023-12-20T11:54:37;5.37;;;1.00;;
23800;SDS011;12081;48.614;10.226;2023-12-20T11:57:21;4.23;;;1.23;;
23800;SDS011;12081;48.614;10.226;2023-12-20T12:00:05;3.33;;;1.20;;
23800;SDS011;12081;48.614;10.226;2023-12-20T12:02:59;2.77;;;1.00;;
23800;SDS011;12081;48.614;10.226;2023-12-20T12:05:43;2.80;;;1.00;;
23800;SDS011;12081;48.614;10.226;2023-12-20T12:08:29;5.87;;;1.30;;
23800;SDS011;12081;48.614;10.226;2023-12-20T12:11:13;5.80;;;1.27;;
23800;SDS011;12081;48.614;10.226;2023-12-20T12:13:57;3.57;;;1.17;;
23800;SDS011;12081;48.614;10.226;2023-12-20T12:16:42;4.47;;;1.30;;
23800;SDS011;12081;48.614;10.226;2023-12-20T12:19:27;8.27;;;3.00;;
23800;SDS011;12081;48.614;10.226;2023-12-20T12:22:13;9.50;;;2.90;;
23800;SDS011;12081;48.614;10.226;2023-12-20T12:24:59;8.53;;;3.33;;
23800;SDS011;12081;48.614;10.226;2023-12-20T12:27:53;17.13;;;6.87;;
23800;SDS011;12081;48.614;10.226;2023-12-20T12:30:38;4.80;;;1.30;;
23800;SDS011;12081;48.614;10.226;2023-12-20T12:33:24;3.90;;;1.43;;
23800;SDS011;12081;48.614;10.226;2023-12-20T12:36:09;2.70;;;1.30;;
23800;SDS011;12081;48.614;10.226;2023-12-20T12:38:56;4.50;;;1.50;;
23800;SDS011;12081;48.614;10.226;2023-12-20T12:41:41;5.43;;;1.30;;
23800;SDS011;12081;48.614;10.226;2023-12-20T12:44:25;6.00;;;1.50;;
23800;SDS011;12081;48.614;10.226;2023-12-20T12:47:10;7.17;;;1.50;;
23800;SDS011;12081;48.614;10.226;2023-12-20T12:49:54;2.60;;;1.30;;
23800;SDS011;12081;48.614;10.226;2023-12-20T12:52:38;2.23;;;1.63;;
23800;SDS011;12081;48.614;10.226;2023-12-20T12:55:22;3.00;;;1.27;;
23800;SDS011;12081;48.614;10.226;2023-12-20T12:58:06;3.03;;;1.40;;
23800;SDS011;12081;48.614;10.226;2023-12-20T13:00:50;5.10;;;1.37;;
23800;SDS011;12081;48.614;10.226;2023-12-20T13:03:34;5.33;;;1.20;;
23800;SDS011;12081;48.614;10.226;2023-12-20T13:06:19;2.90;;;1.20;;
23800;SDS011;12081;48.614;10.226;2023-12-20T13:09:03;3.73;;;1.30;;
23800;SDS011;12081;48.614;10.226;2023-12-20T13:11:48;3.53;;;1.00;;
23800;SDS011;12081;48.614;10.226;2023-12-20T13:14:33;3.83;;;1.30;;
23800;SDS011;12081;48.614;10.226;2023-12-20T13:17:18;6.93;;;1.20;;
23800;SDS011;12081;48.614;10.226;2023-12-20T13:20:02;1.90;;;1.17;;
23800;SDS011;12081;48.614;10.226;2023-12-20T13:22:47;3.77;;;1.10;;
23800;SDS011;12081;48.614;10.226;2023-12-20T13:25:32;7.83;;;1.63;;
23800;SDS011;12081;48.614;10.226;2023-12-20T13:28:17;3.67;;;1.23;;
23800;SDS011;12081;48.614;10.226;2023-12-20T13:31:01;4.50;;;1.43;;
23800;SDS011;12081;48.614;10.226;2023-12-20T13:33:46;6.23;;;1.27;;
23800;SDS011;12081;48.614;10.226;2023-12-20T13:36:30;4.53;;;0.93;;
23800;SDS011;12081;48.614;10.226;2023-12-20T13:39:14;5.27;;;1.30;;
23800;SDS011;12081;48.614;10.226;2023-12-20T13:41:58;5.33;;;1.20;;
23800;SDS011;12081;48.614;10.226;2023-12-20T13:44:42;2.77;;;1.07;;
23800;SDS011;12081;48.614;10.226;2023-12-20T13:47:27;3.53;;;1.50;;
23800;SDS011;12081;48.614;10.226;2023-12-20T13:50:13;2.27;;;1.20;;
23800;SDS011;12081;48.614;10.226;2023-12-20T13:52:57;6.03;;;1.40;;
23800;SDS011;12081;48.614;10.226;2023-12-20T13:55:41;2.03;;;1.30;;
23800;SDS011;12081;48.614;10.226;2023-12-20T13:58:25;6.73;;;1.20;;
23800;SDS011;12081;48.614;10.226;2023-12-20T14:01:10;4.93;;;1.00;;
23800;SDS011;12081;48.614;10.226;2023-12-20T14:03:55;3.97;;;1.27;;
23800;SDS011;12081;48.614;10.226;2023-12-20T14:06:39;3.33;;;1.80;;
23800;SDS011;12081;48.614;10.226;2023-12-20T14:09:24;5.00;;;2.23;;
23800;SDS011;12081;48.614;10.226;2023-12-20T14:12:08;10.77;;;5.90;;
23800;SDS011;12081;48.614;10.226;2023-12-20T14:14:52;8.03;;;3.90;;
23800;SDS011;12081;48.614;10.226;2023-12-20T14:17:39;3.93;;;3.53;;
23800;SDS011;12081;48.614;10.226;2023-12-20T14:20:25;9.57;;;3.37;;
23800;SDS011;12081;48.614;10.226;2023-12-20T14:23:10;3.43;;;2.23;;
23800;SDS011;12081;48.614;10.226;2023-12-20T14:25:54;6.63;;;2.70;;
23800;SDS011;12081;48.614;10.226;2023-12-20T14:28:40;3.80;;;2.30;;
23800;SDS011;12081;48.614;10.226;2023-12-20T14:31:25;2.83;;;1.40;;
23800;SDS011;12081;48.614;10.226;2023-12-20T14:34:09;2.43;;;1.00;;
23800;SDS011;12081;48.614;10.226;2023-12-20T14:36:53;6.57;;;1.73;;
23800;SDS011;12081;48.614;10.226;2023-12-20T14:39:37;2.60;;;0.80;;
23800;SDS011;12081;48.614;10.226;2023-12-20T14:42:25;3.23;;;0.93;;
23800;SDS011;12081;48.614;10.226;2023-12-20T14:45:09;8.53;;;1.97;;
23800;SDS011;12081;48.614;10.226;2023-12-20T14:47:53;4.63;;;1.37;;
23800;SDS011;12081;48.614;10.226;2023-12-20T14:50:37;5.67;;;1.97;;
23800;SDS011;12081;48.614;10.226;2023-12-20T14:53:24;3.83;;;1.70;;
23800;SDS011;12081;48.614;10.226;2023-12-20T14:56:08;5.23;;;1.80;;
23800;SDS011;12081;48.614;10.226;2023-12-20T14:58:52;2.13;;;1.13;;
23800;SDS011;12081;48.614;10.226;2023-12-20T15:01:36;3.73;;;1.30;;
23800;SDS011;12081;48.614;10.226;2023-12-20T15:04:20;4.77;;;1.30;;
23800;SDS011;12081;48.614;10.226;2023-12-20T15:07:11;3.63;;;1.20;;
23800;SDS011;12081;48.614;10.226;2023-12-20T15:09:55;2.70;;;1.10;;
23800;SDS011;12081;48.614;10.226;2023-12-20T15:12:39;2.27;;;1.10;;
23800;SDS011;12081;48.614;10.226;2023-12-20T15:15:23;5.33;;;1.20;;
23800;SDS011;12081;48.614;10.226;2023-12-20T15:18:07;6.43;;;0.90;;
23800;SDS011;12081;48.614;10.226;2023-12-20T15:20:51;4.70;;;1.20;;
23800;SDS011;12081;48.614;10.226;2023-12-20T15:23:35;2.10;;;1.10;;
23800;SDS011;12081;48.614;10.226;2023-12-20T15:26:19;2.87;;;0.87;;
23800;SDS011;12081;48.614;10.226;2023-12-20T15:29:03;2.13;;;1.40;;
23800;SDS011;12081;48.614;10.226;2023-12-20T15:31:48;7.47;;;1.30;;
23800;SDS011;12081;48.614;10.226;2023-12-20T15:34:32;3.23;;;1.47;;
23800;SDS011;12081;48.614;10.226;2023-12-20T15:37:16;6.23;;;1.17;;
23800;SDS011;12081;48.614;10.226;2023-12-20T15:40:00;6.63;;;1.30;;
23800;SDS011;12081;48.614;10.226;2023-12-20T15:42:44;5.67;;;1.10;;
23800;SDS011;12081;48.614;10.226;2023-12-20T15:45:28;3.40;;;0.93;;
23800;SDS011;12081;48.614;10.226;2023-12-20T15:48:12;3.93;;;0.97;;
23800;SDS011;12081;48.614;10.226;2023-12-20T15:51:19;2.67;;;1.07;;
23800;SDS011;12081;48.614;10.226;2023-12-20T15:54:04;2.73;;;1.00;;
23800;SDS011;12081;48.614;10.226;2023-12-20T15:56:50;2.87;;;0.90;;
23800;SDS011;12081;48.614;10.226;2023-12-20T15:59:34;5.53;;;0.90;;
23800;SDS011;12081;48.614;10.226;2023-12-20T16:02:19;4.30;;;0.90;;
23800;SDS011;12081;48.614;10.226;2023-12-20T16:05:04;6.57;;;1.37;;
23800;SDS011;12081;48.614;10.226;2023-12-20T16:07:49;4.77;;;1.10;;
23800;SDS011;12081;48.614;10.226;2023-12-20T16:10:33;5.07;;;1.67;;
23800;SDS011;12081;48.614;10.226;2023-12-20T16:13:17;14.80;;;5.77;;
23800;SDS011;12081;48.614;10.226;2023-12-20T16:16:03;5.53;;;2.23;;
23800;SDS011;12081;48.614;10.226;2023-12-20T16:18:48;9.30;;;3.70;;